JBR weather

Jonesboro Municipal Airport
Jonesboro, Arkansas, United States

Public forecast

Using degrees Fahrenheit for public forecast. Weather courtesy of forecast.io.

METAR (pilot weather report)

Retrieved 2019/05/23 11:53 UTC (20 minutes ago):

KJBR 231153Z AUTO 19006KT 10SM CLR 24/22 A3011 RMK AO2 SLP192 T02390217 10250 20233 53022

TAF (pilot weather forecast)

Retrieved 2019/05/23 06:30 UTC (6 hours ago):

TAF KJBR 230526Z 2306/2406 19007KT P6SM SCT250 FM231500 21012G18KT P6SM SCT040 SCT250 FM240200 19004KT P6SM SKC